createdAt,value
2019-03-06T00:01:58.291Z,25.60
2019-03-06T00:04:28.856Z,25.60
2019-03-06T00:06:59.717Z,25.70
2019-03-06T00:09:30.464Z,25.70
2019-03-06T00:12:00.947Z,25.70
2019-03-06T00:14:31.769Z,25.60
2019-03-06T00:17:02.624Z,25.70
2019-03-06T00:19:33.246Z,25.60
2019-03-06T00:22:04.132Z,25.60
2019-03-06T00:24:34.962Z,25.50
2019-03-06T00:27:06.078Z,25.50
2019-03-06T00:29:36.913Z,25.40
2019-03-06T00:32:07.296Z,25.40
2019-03-06T00:34:41.060Z,25.40
2019-03-06T00:37:12.029Z,25.40
2019-03-06T00:39:44.051Z,25.20
2019-03-06T00:42:14.613Z,24.90
2019-03-06T00:44:45.409Z,24.70
2019-03-06T00:47:16.160Z,24.60
2019-03-06T00:49:46.613Z,24.50
2019-03-06T00:52:17.090Z,24.40
2019-03-06T00:54:47.875Z,24.40
2019-03-06T00:57:18.442Z,24.40
2019-03-06T00:59:49.644Z,24.40
2019-03-06T01:02:19.969Z,24.40
2019-03-06T01:04:50.949Z,24.60
2019-03-06T01:07:21.895Z,24.90
2019-03-06T01:09:52.556Z,24.90
2019-03-06T01:12:23.024Z,25.00
2019-03-06T01:14:53.783Z,24.90
2019-03-06T01:17:24.869Z,24.90
2019-03-06T01:19:55.433Z,24.90
2019-03-06T01:22:25.958Z,24.90
2019-03-06T01:24:56.389Z,24.90
2019-03-06T01:27:27.137Z,24.90
2019-03-06T01:29:57.621Z,24.90
2019-03-06T01:32:28.147Z,24.90
2019-03-06T01:35:05.882Z,24.90
2019-03-06T01:37:37.725Z,24.90
2019-03-06T01:40:11.564Z,24.90
2019-03-06T01:42:43.413Z,25.00
2019-03-06T01:45:14.520Z,24.90
2019-03-06T01:47:45.567Z,24.90
2019-03-06T01:50:16.225Z,24.90
2019-03-06T01:52:46.979Z,24.90
2019-03-06T01:55:17.437Z,24.90
2019-03-06T01:57:48.217Z,24.90
2019-03-06T02:00:19.787Z,24.90
2019-03-06T02:02:50.785Z,24.80
2019-03-06T02:05:21.794Z,24.80
2019-03-06T02:07:53.488Z,24.80
2019-03-06T02:10:24.069Z,24.80
2019-03-06T02:12:54.499Z,24.80
2019-03-06T02:15:25.312Z,24.80
2019-03-06T02:17:55.897Z,24.80
2019-03-06T02:20:26.356Z,24.80
2019-03-06T02:22:56.804Z,24.80
2019-03-06T02:25:27.699Z,24.80
2019-03-06T02:27:58.538Z,24.70
2019-03-06T02:30:29.297Z,24.80
2019-03-06T02:32:59.820Z,24.70
2019-03-06T02:35:30.662Z,24.70
2019-03-06T02:38:01.348Z,24.70
2019-03-06T02:40:31.969Z,24.70
2019-03-06T02:43:02.513Z,24.70
2019-03-06T02:45:33.224Z,24.60
2019-03-06T02:48:03.959Z,24.60
2019-03-06T02:50:34.582Z,24.60
2019-03-06T02:53:05.575Z,24.60
2019-03-06T02:55:35.971Z,24.60
2019-03-06T02:58:24.967Z,24.60
2019-03-06T03:01:00.273Z,24.70
2019-03-06T03:03:38.786Z,24.60
2019-03-06T03:06:14.150Z,24.60
2019-03-06T03:08:44.688Z,24.60
2019-03-06T03:11:15.352Z,24.60
2019-03-06T03:13:46.012Z,24.60
2019-03-06T03:16:16.688Z,24.50
2019-03-06T03:18:49.331Z,24.50
2019-03-06T03:21:19.977Z,24.60
2019-03-06T03:23:50.461Z,24.50
2019-03-06T03:26:21.248Z,24.40
2019-03-06T03:28:51.842Z,24.50
2019-03-06T03:31:22.725Z,24.40
2019-03-06T03:33:53.182Z,24.50
2019-03-06T03:36:23.530Z,24.40
2019-03-06T03:38:54.763Z,24.40
2019-03-06T03:41:25.666Z,24.40
2019-03-06T03:43:56.813Z,24.40
2019-03-06T03:46:27.707Z,24.40
2019-03-06T03:48:58.155Z,24.40
2019-03-06T03:51:29.135Z,24.40
2019-03-06T03:53:59.546Z,24.40
2019-03-06T03:56:30.456Z,24.40
2019-03-06T03:59:01.374Z,24.40
2019-03-06T04:01:32.014Z,24.40
2019-03-06T04:04:03.032Z,24.30
2019-03-06T04:06:33.862Z,24.40
2019-03-06T04:09:05.457Z,24.30
2019-03-06T04:11:35.964Z,24.30
2019-03-06T04:14:06.998Z,24.30
2019-03-06T04:16:37.705Z,24.30
2019-03-06T04:19:08.113Z,24.30
2019-03-06T04:21:38.575Z,24.30
2019-03-06T04:24:09.063Z,24.30
2019-03-06T04:26:39.493Z,24.30
2019-03-06T04:29:10.283Z,24.30
2019-03-06T04:31:40.967Z,24.20
2019-03-06T04:34:11.860Z,24.30
2019-03-06T04:36:42.705Z,24.20
2019-03-06T04:39:13.347Z,24.20
2019-03-06T04:41:43.998Z,24.20
2019-03-06T04:44:14.741Z,24.20
2019-03-06T04:46:45.633Z,24.20
2019-03-06T04:49:16.091Z,24.20
2019-03-06T04:51:46.688Z,24.10
2019-03-06T04:54:17.531Z,24.10
2019-03-06T04:56:48.369Z,24.10
2019-03-06T04:59:19.164Z,24.10
2019-03-06T05:01:50.096Z,24.10
2019-03-06T05:04:20.765Z,24.10
2019-03-06T05:06:51.634Z,23.90
2019-03-06T05:09:22.529Z,23.60
2019-03-06T05:11:53.358Z,23.40
2019-03-06T05:14:23.834Z,23.30
2019-03-06T05:16:58.560Z,23.20
2019-03-06T05:19:29.524Z,23.10
2019-03-06T05:22:00.043Z,23.00
2019-03-06T05:24:30.446Z,23.00
2019-03-06T05:27:00.906Z,22.90
2019-03-06T05:29:31.330Z,22.90
2019-03-06T05:32:26.113Z,22.80
2019-03-06T05:34:57.418Z,22.80
2019-03-06T05:38:00.836Z,22.70
2019-03-06T05:40:31.531Z,22.70
2019-03-06T05:43:02.124Z,22.70
2019-03-06T05:45:32.957Z,22.60
2019-03-06T05:48:04.788Z,22.60
2019-03-06T05:50:35.518Z,22.60
2019-03-06T05:53:22.248Z,22.50
2019-03-06T05:55:52.696Z,22.50
2019-03-06T05:58:23.470Z,22.50
2019-03-06T06:00:54.421Z,22.40
2019-03-06T06:03:24.873Z,22.40
2019-03-06T06:05:55.599Z,22.40
2019-03-06T06:08:26.402Z,22.30
2019-03-06T06:10:57.154Z,22.30
2019-03-06T06:13:28.074Z,22.30
2019-03-06T06:15:58.549Z,22.30
2019-03-06T06:18:29.611Z,22.20
2019-03-06T06:21:10.532Z,22.20
2019-03-06T06:23:42.560Z,22.20
2019-03-06T06:26:13.405Z,22.20
2019-03-06T06:28:43.792Z,22.20
2019-03-06T06:31:14.687Z,22.10
2019-03-06T06:33:45.616Z,22.10
2019-03-06T06:36:16.415Z,22.10
2019-03-06T06:38:47.438Z,22.10
2019-03-06T06:41:18.252Z,22.10
2019-03-06T06:43:48.835Z,22.10
2019-03-06T06:46:19.614Z,22.00
2019-03-06T06:48:50.435Z,22.00
2019-03-06T06:51:29.403Z,22.00
2019-03-06T06:54:11.595Z,22.00
2019-03-06T06:57:13.523Z,22.00
2019-03-06T06:59:55.122Z,22.00
2019-03-06T07:02:41.293Z,21.90
2019-03-06T07:05:28.960Z,21.90
2019-03-06T07:08:03.920Z,21.90
2019-03-06T07:10:48.461Z,21.90
2019-03-06T07:13:23.564Z,21.90
2019-03-06T07:16:04.322Z,21.80
2019-03-06T07:18:36.394Z,21.90
2019-03-06T07:21:20.803Z,21.80
2019-03-06T07:23:52.933Z,21.80
2019-03-06T07:26:41.288Z,21.80
2019-03-06T07:29:13.516Z,21.80
2019-03-06T07:31:48.824Z,21.70
2019-03-06T07:34:29.197Z,21.70
2019-03-06T07:37:10.331Z,21.70
2019-03-06T07:39:42.568Z,21.70
2019-03-06T07:42:20.550Z,21.70
2019-03-06T07:45:30.956Z,21.70
2019-03-06T07:48:05.972Z,21.70
2019-03-06T07:50:47.057Z,21.60
2019-03-06T07:53:33.356Z,21.60
2019-03-06T07:56:05.660Z,21.60
2019-03-06T07:58:52.866Z,21.60
2019-03-06T08:01:24.673Z,21.60
2019-03-06T08:03:57.817Z,21.60
2019-03-06T08:06:28.606Z,21.60
2019-03-06T08:08:58.988Z,21.60
2019-03-06T08:11:40.272Z,21.50
2019-03-06T08:14:21.783Z,21.50
2019-03-06T08:16:49.040Z,21.50
2019-03-06T08:19:20.772Z,21.50
2019-03-06T08:22:04.816Z,21.50
2019-03-06T08:24:42.877Z,21.50
2019-03-06T08:27:13.409Z,21.40
2019-03-06T08:29:44.060Z,21.50
2019-03-06T08:32:16.229Z,21.40
2019-03-06T08:34:47.011Z,21.40
2019-03-06T08:37:17.729Z,21.40
2019-03-06T08:39:48.272Z,21.40
2019-03-06T08:42:19.151Z,21.40
2019-03-06T08:44:49.820Z,21.40
2019-03-06T08:47:28.140Z,21.30
2019-03-06T08:50:00.501Z,21.40
2019-03-06T08:52:38.833Z,21.30
2019-03-06T08:55:14.953Z,21.30
2019-03-06T08:57:47.009Z,21.30
2019-03-06T09:00:26.278Z,21.30
2019-03-06T09:03:08.962Z,21.30
2019-03-06T09:05:57.460Z,21.20
2019-03-06T09:08:45.946Z,21.30
2019-03-06T09:11:24.020Z,21.20
2019-03-06T09:14:05.399Z,21.20
2019-03-06T09:16:54.015Z,21.20
2019-03-06T09:19:31.585Z,21.20
2019-03-06T09:22:03.825Z,21.20
2019-03-06T09:24:47.302Z,21.20
2019-03-06T09:27:22.406Z,21.20
2019-03-06T09:29:57.257Z,21.20
2019-03-06T09:32:43.931Z,21.10
2019-03-06T09:35:32.500Z,21.10
2019-03-06T09:38:20.191Z,21.10
2019-03-06T09:41:10.745Z,21.10
2019-03-06T09:43:42.581Z,21.10
2019-03-06T09:46:17.869Z,21.10
2019-03-06T09:48:49.853Z,21.10
2019-03-06T09:51:33.976Z,21.00
2019-03-06T09:54:12.100Z,21.00
2019-03-06T09:56:53.301Z,21.00
2019-03-06T09:59:28.431Z,21.00
2019-03-06T10:02:06.828Z,21.00
2019-03-06T10:04:39.879Z,21.00
2019-03-06T10:07:28.162Z,21.00
2019-03-06T10:10:18.622Z,20.90
2019-03-06T10:12:53.972Z,20.90
2019-03-06T10:15:26.234Z,20.90
2019-03-06T10:18:00.791Z,21.00
2019-03-06T10:20:31.818Z,20.90
2019-03-06T10:23:02.575Z,20.90
2019-03-06T10:25:33.059Z,20.80
2019-03-06T10:28:06.614Z,20.90
2019-03-06T10:30:36.435Z,20.90
2019-03-06T10:33:07.370Z,20.90
2019-03-06T10:35:38.054Z,20.80
2019-03-06T10:38:16.425Z,20.80
2019-03-06T10:40:41.092Z,20.80
2019-03-06T10:43:11.901Z,20.90
2019-03-06T10:45:42.500Z,20.90
2019-03-06T10:48:13.203Z,21.00
2019-03-06T10:50:44.101Z,21.00
2019-03-06T10:53:14.961Z,21.00
2019-03-06T10:55:45.560Z,21.00
2019-03-06T10:58:16.523Z,21.00
2019-03-06T11:00:54.681Z,21.00
2019-03-06T11:03:27.053Z,21.00
2019-03-06T11:05:57.890Z,21.00
2019-03-06T11:08:28.526Z,21.00
2019-03-06T11:10:59.038Z,21.00
2019-03-06T11:13:29.778Z,21.00
2019-03-06T11:16:00.221Z,21.10
2019-03-06T11:18:30.714Z,21.10
2019-03-06T11:21:01.185Z,21.10
2019-03-06T11:23:31.730Z,21.10
2019-03-06T11:26:02.809Z,21.00
2019-03-06T11:28:33.679Z,21.00
2019-03-06T11:31:07.861Z,21.00
2019-03-06T11:33:38.851Z,21.00
2019-03-06T11:36:09.596Z,21.00
2019-03-06T11:38:40.468Z,21.00
2019-03-06T11:41:11.226Z,21.00
2019-03-06T11:43:41.580Z,21.00
2019-03-06T11:46:13.001Z,21.00
2019-03-06T11:48:43.597Z,21.00
2019-03-06T11:51:13.953Z,21.00
2019-03-06T11:53:44.648Z,21.00
2019-03-06T11:56:15.349Z,21.00
2019-03-06T11:58:46.376Z,21.00
2019-03-06T12:01:19.811Z,20.90
2019-03-06T12:03:50.953Z,20.90
2019-03-06T12:06:21.586Z,20.90
2019-03-06T12:08:52.371Z,20.90
2019-03-06T12:11:22.818Z,20.90
2019-03-06T12:13:53.845Z,20.90
2019-03-06T12:16:24.808Z,20.90
2019-03-06T12:18:55.543Z,20.90
2019-03-06T12:21:26.558Z,20.90
2019-03-06T12:23:57.444Z,20.90
2019-03-06T12:26:28.048Z,20.90
2019-03-06T12:28:58.657Z,20.90
2019-03-06T12:31:29.536Z,20.90
2019-03-06T12:34:00.318Z,20.90
2019-03-06T12:36:31.048Z,20.90
2019-03-06T12:39:02.100Z,20.90
2019-03-06T12:41:32.938Z,20.90
2019-03-06T12:44:10.178Z,20.90
2019-03-06T12:46:35.565Z,20.90
2019-03-06T12:49:06.105Z,20.90
2019-03-06T12:51:36.985Z,20.90
2019-03-06T12:54:07.464Z,20.90
2019-03-06T12:56:38.580Z,20.90
2019-03-06T12:59:09.442Z,20.90
2019-03-06T13:01:40.427Z,20.90
2019-03-06T13:04:11.035Z,20.90
2019-03-06T13:06:41.698Z,20.90
2019-03-06T13:09:14.813Z,20.80
2019-03-06T13:11:45.661Z,20.90
2019-03-06T13:14:16.492Z,20.80
2019-03-06T13:16:47.462Z,20.80
2019-03-06T13:19:17.923Z,20.80
2019-03-06T13:21:48.850Z,20.80
2019-03-06T13:24:19.437Z,20.80
2019-03-06T13:26:50.305Z,20.80
2019-03-06T13:29:21.012Z,20.80
2019-03-06T13:31:51.843Z,20.80
2019-03-06T13:34:23.625Z,20.80
2019-03-06T13:36:54.128Z,20.80
2019-03-06T13:39:24.813Z,20.80
2019-03-06T13:41:55.937Z,20.80
2019-03-06T13:44:26.677Z,20.70
2019-03-06T13:46:57.646Z,20.70
2019-03-06T13:49:28.152Z,20.80
2019-03-06T13:51:58.920Z,20.70
2019-03-06T13:54:29.694Z,20.70
2019-03-06T13:57:00.603Z,20.70
2019-03-06T13:59:31.380Z,20.70
2019-03-06T14:02:02.536Z,20.70
2019-03-06T14:04:33.173Z,20.70
2019-03-06T14:07:03.868Z,20.70
2019-03-06T14:09:34.337Z,20.70
2019-03-06T14:12:05.292Z,20.70
2019-03-06T14:14:35.816Z,20.70
2019-03-06T14:17:08.229Z,20.70
2019-03-06T14:19:38.677Z,20.70
2019-03-06T14:22:09.350Z,20.70
2019-03-06T14:24:40.209Z,20.60
2019-03-06T14:27:11.805Z,20.60
2019-03-06T14:29:42.632Z,20.60
2019-03-06T14:32:14.947Z,20.60
2019-03-06T14:34:45.708Z,20.60
2019-03-06T14:37:16.162Z,20.60
2019-03-06T14:39:46.725Z,20.60
2019-03-06T14:42:17.575Z,20.60
2019-03-06T14:44:48.465Z,20.60
2019-03-06T14:47:20.348Z,20.60
2019-03-06T14:49:51.158Z,20.60
2019-03-06T14:52:21.930Z,20.60
2019-03-06T14:54:52.818Z,20.60
2019-03-06T14:57:23.270Z,20.50
2019-03-06T14:59:54.035Z,20.50
2019-03-06T15:02:24.927Z,20.50
2019-03-06T15:04:55.682Z,20.50
2019-03-06T15:07:26.453Z,20.50
2019-03-06T15:09:57.318Z,20.50
2019-03-06T15:12:28.480Z,20.50
2019-03-06T15:14:58.980Z,20.50
2019-03-06T15:17:29.567Z,20.50
2019-03-06T15:20:00.542Z,20.50
2019-03-06T15:22:38.303Z,20.50
2019-03-06T15:25:04.717Z,20.50
2019-03-06T15:27:35.421Z,20.50
2019-03-06T15:30:07.881Z,20.50
2019-03-06T15:32:38.637Z,20.50
2019-03-06T15:35:10.456Z,20.50
2019-03-06T15:37:42.548Z,20.50
2019-03-06T15:40:24.711Z,20.50
2019-03-06T15:42:55.808Z,20.50
2019-03-06T15:45:32.770Z,20.50
2019-03-06T15:48:03.195Z,20.50
2019-03-06T15:50:34.036Z,20.60
2019-03-06T15:53:04.375Z,20.50
2019-03-06T15:55:35.083Z,20.60
2019-03-06T15:58:05.906Z,20.60
2019-03-06T16:00:45.959Z,20.70
2019-03-06T16:03:11.639Z,20.70
2019-03-06T16:05:42.725Z,20.80
2019-03-06T16:08:14.440Z,20.80
2019-03-06T16:10:45.279Z,20.90
2019-03-06T16:13:16.033Z,20.90
2019-03-06T16:15:46.743Z,20.90
2019-03-06T16:18:17.274Z,20.80
2019-03-06T16:20:47.760Z,20.90
2019-03-06T16:23:18.430Z,21.00
2019-03-06T16:25:48.945Z,20.90
2019-03-06T16:28:19.556Z,20.90
2019-03-06T16:30:50.495Z,21.00
2019-03-06T16:33:21.482Z,21.00
2019-03-06T16:35:52.444Z,21.00
2019-03-06T16:38:23.046Z,21.10
2019-03-06T16:40:53.671Z,21.10
2019-03-06T16:43:24.052Z,21.10
2019-03-06T16:45:55.240Z,21.10
2019-03-06T16:48:25.684Z,21.20
2019-03-06T16:50:56.215Z,21.20
2019-03-06T16:53:26.588Z,21.20
2019-03-06T16:55:56.964Z,21.20
2019-03-06T16:58:27.615Z,21.10
2019-03-06T17:00:58.129Z,21.10
2019-03-06T17:03:28.729Z,21.00
2019-03-06T17:05:59.710Z,21.00
2019-03-06T17:08:30.384Z,21.00
2019-03-06T17:11:00.850Z,21.00
2019-03-06T17:13:31.557Z,21.00
2019-03-06T17:16:02.221Z,21.00
2019-03-06T17:18:32.739Z,21.00
2019-03-06T17:21:03.211Z,20.90
2019-03-06T17:23:33.713Z,21.00
2019-03-06T17:26:04.227Z,20.90
2019-03-06T17:28:34.762Z,20.90
2019-03-06T17:31:05.357Z,20.90
2019-03-06T17:33:35.893Z,20.90
2019-03-06T17:36:06.477Z,20.90
2019-03-06T17:38:36.990Z,20.90
2019-03-06T17:41:07.727Z,20.90
2019-03-06T17:43:38.732Z,20.90
2019-03-06T17:46:09.658Z,20.90
2019-03-06T17:48:40.084Z,20.90
2019-03-06T17:51:10.637Z,20.90
2019-03-06T17:53:41.200Z,20.90
2019-03-06T17:56:12.814Z,20.90
2019-03-06T17:58:43.269Z,21.00
2019-03-06T18:01:15.143Z,21.10
2019-03-06T18:03:52.884Z,21.10
2019-03-06T18:06:23.683Z,21.30
2019-03-06T18:08:54.315Z,21.30
2019-03-06T18:11:24.853Z,21.40
2019-03-06T18:13:55.591Z,21.40
2019-03-06T18:16:27.325Z,21.40
2019-03-06T18:19:00.421Z,21.50
2019-03-06T18:21:31.040Z,21.50
2019-03-06T18:24:01.616Z,21.60
2019-03-06T18:26:31.988Z,21.60
2019-03-06T18:29:02.589Z,21.60
2019-03-06T18:31:33.503Z,21.70
2019-03-06T18:34:04.196Z,21.70
2019-03-06T18:36:34.593Z,21.70
2019-03-06T18:39:07.168Z,21.70
2019-03-06T18:41:37.623Z,21.70
2019-03-06T18:44:08.571Z,21.70
2019-03-06T18:46:38.953Z,21.80
2019-03-06T18:49:09.464Z,21.80
2019-03-06T18:51:40.116Z,21.90
2019-03-06T18:54:10.566Z,21.90
2019-03-06T18:56:42.694Z,21.90
2019-03-06T18:59:13.700Z,22.00
2019-03-06T19:01:44.038Z,22.00
2019-03-06T19:04:15.382Z,22.00
2019-03-06T19:06:45.961Z,22.10
2019-03-06T19:09:16.416Z,22.10
2019-03-06T19:11:47.371Z,22.10
2019-03-06T19:14:17.976Z,22.20
2019-03-06T19:16:49.178Z,22.20
2019-03-06T19:19:19.533Z,22.20
2019-03-06T19:21:49.999Z,22.30
2019-03-06T19:24:20.505Z,22.30
2019-03-06T19:26:50.965Z,22.20
2019-03-06T19:29:21.432Z,22.20
2019-03-06T19:31:52.015Z,22.20
2019-03-06T19:34:22.433Z,22.10
2019-03-06T19:36:53.031Z,22.10
2019-03-06T19:39:23.525Z,22.10
2019-03-06T19:41:53.907Z,22.20
2019-03-06T19:44:24.513Z,22.20
2019-03-06T19:46:55.048Z,22.20
2019-03-06T19:49:25.533Z,22.10
2019-03-06T19:51:56.244Z,22.20
2019-03-06T19:54:26.697Z,22.30
2019-03-06T19:56:57.266Z,22.30
2019-03-06T19:59:27.752Z,22.30
2019-03-06T20:01:58.336Z,22.30
2019-03-06T20:04:28.831Z,22.30
2019-03-06T20:06:59.404Z,22.30
2019-03-06T20:09:30.266Z,22.30
2019-03-06T20:12:00.811Z,22.40
2019-03-06T20:14:31.585Z,22.40
2019-03-06T20:17:02.267Z,22.40
2019-03-06T20:19:33.342Z,22.40
2019-03-06T20:22:03.978Z,22.40
2019-03-06T20:24:34.485Z,22.40
2019-03-06T20:27:05.232Z,22.40
2019-03-06T20:29:35.873Z,22.40
2019-03-06T20:32:09.296Z,22.40
2019-03-06T20:34:39.852Z,22.50
2019-03-06T20:37:10.293Z,22.40
2019-03-06T20:39:40.899Z,22.40
2019-03-06T20:42:12.884Z,22.40
2019-03-06T20:44:43.535Z,22.50
2019-03-06T20:47:15.052Z,22.30
2019-03-06T20:49:45.942Z,22.30
2019-03-06T20:52:17.191Z,22.30
2019-03-06T20:54:47.916Z,22.40
2019-03-06T20:57:18.417Z,22.40
2019-03-06T20:59:49.375Z,22.40
2019-03-06T21:02:21.273Z,22.30
2019-03-06T21:04:53.403Z,22.30
2019-03-06T21:07:24.083Z,22.40
2019-03-06T21:09:54.514Z,22.40
2019-03-06T21:12:24.975Z,22.40
2019-03-06T21:14:55.772Z,22.40
2019-03-06T21:17:26.442Z,22.30
2019-03-06T21:19:57.860Z,22.40
2019-03-06T21:22:28.650Z,22.40
2019-03-06T21:24:59.032Z,22.40
2019-03-06T21:27:29.475Z,22.50
2019-03-06T21:29:59.990Z,22.40
2019-03-06T21:32:31.925Z,22.30
2019-03-06T21:35:02.461Z,22.30
2019-03-06T21:37:32.854Z,22.30
2019-03-06T21:40:03.539Z,22.30
2019-03-06T21:42:34.350Z,22.30
2019-03-06T21:45:06.620Z,22.30
2019-03-06T21:47:39.480Z,22.30
2019-03-06T21:50:13.754Z,22.40
2019-03-06T21:52:44.645Z,22.40
2019-03-06T21:55:16.136Z,22.30
2019-03-06T21:57:48.666Z,22.30
2019-03-06T22:00:23.629Z,22.30
2019-03-06T22:02:55.728Z,22.30
2019-03-06T22:05:26.236Z,22.30
2019-03-06T22:07:56.770Z,22.30
2019-03-06T22:10:27.560Z,22.30
2019-03-06T22:12:57.981Z,22.30
2019-03-06T22:15:28.546Z,22.30
2019-03-06T22:17:59.052Z,22.40
2019-03-06T22:20:29.741Z,22.40
2019-03-06T22:23:00.516Z,22.40
2019-03-06T22:25:31.054Z,22.40
2019-03-06T22:28:04.093Z,22.40
2019-03-06T22:30:35.694Z,22.40
2019-03-06T22:33:06.137Z,22.40
2019-03-06T22:35:36.811Z,22.40
2019-03-06T22:38:07.490Z,22.40
2019-03-06T22:40:38.081Z,22.40
2019-03-06T22:43:08.550Z,22.40
2019-03-06T22:45:41.279Z,22.40
2019-03-06T22:48:12.027Z,22.40
2019-03-06T22:50:42.585Z,22.40
2019-03-06T22:53:13.387Z,22.50
2019-03-06T22:55:43.970Z,22.50
2019-03-06T22:58:14.488Z,22.50
2019-03-06T23:00:51.548Z,22.50
2019-03-06T23:03:22.668Z,22.50
2019-03-06T23:05:53.246Z,22.50
2019-03-06T23:08:23.910Z,22.60
2019-03-06T23:10:54.413Z,22.60
2019-03-06T23:13:25.281Z,22.50
2019-03-06T23:15:55.800Z,22.50
2019-03-06T23:18:28.806Z,22.50
2019-03-06T23:20:59.497Z,22.60
2019-03-06T23:23:30.350Z,22.50
2019-03-06T23:26:01.028Z,22.60
2019-03-06T23:28:31.457Z,22.70
2019-03-06T23:31:01.928Z,22.70
2019-03-06T23:33:32.393Z,22.60
2019-03-06T23:36:03.207Z,22.60
2019-03-06T23:38:34.118Z,22.70
2019-03-06T23:41:04.769Z,22.60
2019-03-06T23:43:35.613Z,22.70
2019-03-06T23:46:06.405Z,22.80
2019-03-06T23:48:37.143Z,22.70
2019-03-06T23:51:10.562Z,22.70
2019-03-06T23:53:45.104Z,22.70
2019-03-06T23:56:15.736Z,22.70
2019-03-06T23:58:46.215Z,22.70
